Погода Гродзена 2 недели

Варминско-Мазурское воеводство, Польша

15 - 28 июля
  • 15июля
    Сегодня
    +17°
    +25°
    Ясно и безоблачно
    ВремяПогодаТемператураВлажностьДавлениеВетер, м/сВероятность осадков
    02:00Облачно с прояснениями+16°C81 %758 мм1.6 м/с3 %
    05:00Небольшая облачность+16°C82 %759 мм2.2 м/с2 %
    08:00Небольшая облачность+20°C75 %759 мм1.9 м/с2 %
    11:00Практически безоблачно+23°C66 %759 мм0.9 м/с4 %
    14:00Ясно и безоблачно+25°C66 %759 мм1.3 м/с6 %
    17:00Ясно и безоблачно+24°C63 %758 мм3.0 м/с3 %
    20:00Ясно и безоблачно+22°C72 %758 мм1.9 м/с2 %
    23:00Небольшая облачность+19°C82 %758 мм2.4 м/с2 %
  • 16июля
    Вторник
    +19°
    +30°
    Облачно с прояснениями
    ВремяПогодаТемператураВлажностьДавлениеВетер, м/сВероятность осадков
    02:00Ясно и безоблачно+18°C83 %758 мм3.1 м/с2 %
    05:00Ясно и безоблачно+18°C84 %758 мм3.3 м/с2 %
    08:00Ясно и безоблачно+23°C75 %758 мм3.4 м/с2 %
    11:00Облачно с прояснениями+27°C53 %757 мм4.4 м/с2 %
    14:00Облачно с прояснениями+29°C48 %756 мм4.5 м/с5 %
    17:00Облачно с прояснениями+30°C46 %755 мм3.8 м/с14 %
    20:00Облачно с прояснениями, ливень+24°C70 %754 мм2.3 м/с67 %
    23:00Облачно с прояснениями, ливень+20°C90 %755 мм3.5 м/с68 %
  • 17июля
    Среда
    +16°
    +26°
    Ясно и безоблачно
    ВремяПогодаТемператураВлажностьДавлениеВетер, м/сВероятность осадков
    02:00Небольшая облачность+19°C93 %755 мм4.2 м/с42 %
    05:00Облачно с прояснениями+19°C94 %757 мм4.2 м/с8 %
    08:00Ясно и безоблачно+21°C83 %758 мм3.3 м/с8 %
    11:00Практически безоблачно+24°C58 %759 мм4.5 м/с19 %
    14:00Ясно и безоблачно+25°C48 %759 мм5.4 м/с22 %
    17:00Облачно с прояснениями+23°C63 %760 мм4.4 м/с18 %
    20:00Небольшая облачность+19°C78 %761 мм1.5 м/с12 %
    23:00Ясно и безоблачно+18°C82 %762 мм2.1 м/с10 %
  • 18июля
    Четверг
    +15°
    +22°
    Облачно с прояснениями
    ВремяПогодаТемператураВлажностьДавлениеВетер, м/сВероятность осадков
    02:00Ясно и безоблачно+18°C78 %762 мм3.3 м/с3 %
    05:00Ясно и безоблачно+17°C82 %762 мм3.6 м/с5 %
    08:00Практически безоблачно+19°C76 %763 мм4.2 м/с13 %
    11:00Ясно и безоблачно+20°C63 %763 мм4.1 м/с22 %
    14:00Облачно с прояснениями+22°C63 %763 мм3.3 м/с15 %
    17:00Небольшая облачность+21°C70 %763 мм4.0 м/с15 %
    20:00Практически безоблачно+18°C78 %763 мм2.5 м/с2 %
    23:00Облачно с прояснениями+16°C89 %763 мм1.4 м/с2 %
  • 19июля
    Пятница
    +13°
    +22°
    Ясно и безоблачно
    ВремяПогодаТемператураВлажностьДавлениеВетер, м/сВероятность осадков
    02:00Практически безоблачно+16°C91 %763 мм2.7 м/с2 %
    05:00Ясно и безоблачно+15°C90 %763 мм3.1 м/с3 %
    08:00Ясно и безоблачно+18°C73 %763 мм4.3 м/с5 %
    11:00Ясно и безоблачно+20°C62 %763 мм4.5 м/с5 %
    14:00Ясно и безоблачно+21°C58 %763 мм4.3 м/с9 %
    17:00Ясно и безоблачно+21°C60 %762 мм4.3 м/с5 %
    20:00Ясно и безоблачно+18°C72 %761 мм3.0 м/с2 %
    23:00Ясно и безоблачно+15°C83 %761 мм2.5 м/с2 %
Мы используем cookies
Соглашаюсь